Time;durP1;ratioP1;P1;durP2;ratioP2;P2;SDS_P1;SDS_P2;PMS_P1;PMS_P2;Temp;Humidity;BMP_temperature;BMP_pressure;BME280_temperature;BME280_humidity;BME280_pressure;Samples;Min_cycle;Max_cycle;Signal;HPM_P1;HPM_P2
2021/09/13 00:01:16;;;;;;;23.85;11.53;;;;;;;17.05;56.44;101057.11;1831420;78;20953;-79
2021/09/13 00:03:44;;;;;;;31.25;11.70;;;;;;;17.00;56.76;101058.00;1831644;78;20835;-83
2021/09/13 00:06:13;;;;;;;22.32;11.18;;;;;;;16.93;57.05;101046.73;1831768;78;20929;-81
2021/09/13 00:08:41;;;;;;;25.20;12.05;;;;;;;16.89;57.30;101051.89;1831711;78;20961;-79
2021/09/13 00:11:10;;;;;;;19.95;10.45;;;;;;;16.85;57.55;101050.48;1831988;78;20863;-82
2021/09/13 00:13:38;;;;;;;15.60;10.13;;;;;;;16.83;57.81;101051.11;1831806;78;20831;-82
2021/09/13 00:16:06;;;;;;;23.07;13.22;;;;;;;16.84;57.92;101053.25;1831884;78;21456;-85
2021/09/13 00:18:34;;;;;;;27.62;14.90;;;;;;;16.83;57.93;101046.34;1831780;78;21547;-87
2021/09/13 00:21:03;;;;;;;35.40;13.60;;;;;;;16.86;57.91;101043.45;1831980;78;20850;-85
2021/09/13 00:23:32;;;;;;;34.70;12.13;;;;;;;16.89;57.98;101052.36;1831958;78;21552;-87
2021/09/13 00:26:00;;;;;;;41.92;11.55;;;;;;;16.89;58.10;101050.58;1831860;78;21409;-85
2021/09/13 00:28:32;;;;;;;49.70;11.20;;;;;;;16.89;58.14;101050.58;1831817;78;20834;-83
2021/09/13 00:31:02;;;;;;;52.58;10.63;;;;;;;16.89;58.11;101053.67;1829430;78;21504;-87
2021/09/13 00:33:30;;;;;;;50.03;12.33;;;;;;;16.90;58.14;101043.07;1831897;78;21429;-83
2021/09/13 00:35:59;;;;;;;29.52;10.70;;;;;;;16.91;58.13;101044.70;1831986;78;21112;-81
2021/09/13 00:38:27;;;;;;;25.68;10.18;;;;;;;16.94;58.25;101047.57;1831966;78;21493;-82
2021/09/13 00:40:55;;;;;;;20.97;10.85;;;;;;;16.94;58.35;101044.44;1831736;78;21486;-84
2021/09/13 00:43:24;;;;;;;21.00;9.45;;;;;;;16.95;58.53;101045.28;1831731;78;21012;-83
2021/09/13 00:45:55;;;;;;;23.62;10.43;;;;;;;16.94;58.53;101044.95;1831798;78;20977;-82
2021/09/13 00:48:24;;;;;;;29.32;10.53;;;;;;;16.93;58.53;101041.49;1832107;78;21457;-85
2021/09/13 00:50:52;;;;;;;15.85;10.38;;;;;;;16.92;58.55;101043.75;1802058;78;21540;-88
2021/09/13 00:53:20;;;;;;;21.33;10.45;;;;;;;16.90;58.53;101044.38;1801850;78;21468;-89
2021/09/13 00:55:48;;;;;;;21.50;9.93;;;;;;;16.90;58.58;101040.92;1832139;78;21100;-84
2021/09/13 00:58:16;;;;;;;16.30;10.50;;;;;;;16.86;58.58;101042.14;1831774;78;20897;-86
2021/09/13 01:00:43;;;;;;;17.10;9.35;;;;;;;16.80;58.65;101039.58;1830559;78;21128;-88
2021/09/13 01:03:09;;;;;;;18.27;10.23;;;;;;;16.77;58.72;101046.39;1825831;78;20882;-86
2021/09/13 01:05:46;;;;;;;26.17;10.53;;;;;;;16.73;58.93;101047.61;1826162;78;21563;-90
2021/09/13 01:08:14;;;;;;;19.30;10.50;;;;;;;16.67;59.06;101042.89;1825967;78;20917;-85
2021/09/13 01:10:44;;;;;;;16.02;9.40;;;;;;;16.61;59.18;101043.42;1821360;78;21120;-85
2021/09/13 01:13:10;;;;;;;19.75;10.00;;;;;;;16.57;59.39;101041.17;1768846;78;21126;-84
2021/09/13 01:15:39;;;;;;;17.10;9.80;;;;;;;16.52;59.68;101044.65;1826105;78;20933;-86
2021/09/13 01:18:08;;;;;;;21.40;10.32;;;;;;;16.45;59.96;101046.95;1826240;78;21436;-87
2021/09/13 01:20:40;;;;;;;13.40;9.95;;;;;;;16.36;60.35;101048.57;1826049;78;20933;-92
2021/09/13 01:23:24;;;;;;;17.98;9.50;;;;;;;16.31;60.64;101045.48;1825890;78;20923;-89
2021/09/13 01:25:56;;;;;;;14.90;9.80;;;;;;;16.26;61.12;101049.45;1826058;78;21125;-86
2021/09/13 01:28:23;;;;;;;15.58;10.55;;;;;;;16.22;61.42;101054.59;1793807;78;21461;-86
2021/09/13 01:30:51;;;;;;;17.55;10.10;;;;;;;16.17;61.62;101053.68;1826517;78;21458;-85
2021/09/13 01:33:20;;;;;;;26.40;12.53;;;;;;;16.15;61.87;101047.72;1826604;78;20934;-86
2021/09/13 01:35:47;;;;;;;17.87;12.50;;;;;;;16.13;61.97;101049.65;1821514;78;21088;-83
2021/09/13 01:38:14;;;;;;;24.07;13.40;;;;;;;16.12;62.06;101055.00;1826237;78;21802;-86
2021/09/13 01:40:42;;;;;;;21.90;14.07;;;;;;;16.12;62.18;101055.83;1793127;78;20823;-86
2021/09/13 01:43:09;;;;;;;30.45;16.95;;;;;;;16.10;62.21;101056.45;1826092;78;21449;-86
2021/09/13 01:45:36;;;;;;;26.50;14.98;;;;;;;16.11;62.33;101054.20;1825722;78;20966;-86
2021/09/13 01:48:04;;;;;;;28.62;15.40;;;;;;;16.10;62.33;101053.83;1825902;78;20984;-87
2021/09/13 01:50:32;;;;;;;23.70;13.58;;;;;;;16.09;62.40;101059.18;1825568;78;21225;-85
2021/09/13 01:53:00;;;;;;;30.95;15.08;;;;;;;16.08;62.43;101054.41;1825987;78;20981;-89
2021/09/13 01:55:30;;;;;;;22.58;12.63;;;;;;;16.09;62.55;101050.85;1826199;78;21460;-83
2021/09/13 01:57:58;;;;;;;20.23;11.28;;;;;;;16.10;62.60;101053.00;1826106;78;20914;-84
2021/09/13 02:00:25;;;;;;;21.87;12.10;;;;;;;16.09;62.70;101044.78;1825753;78;21457;-78
2021/09/13 02:02:52;;;;;;;22.02;11.78;;;;;;;16.07;62.76;101048.02;1825660;78;21117;-80
2021/09/13 02:05:21;;;;;;;20.62;10.88;;;;;;;16.05;62.91;101044.70;1824383;78;20862;-84
2021/09/13 02:07:51;;;;;;;16.48;10.90;;;;;;;16.00;63.07;101047.69;1825773;78;20819;-82
2021/09/13 02:10:19;;;;;;;21.55;11.55;;;;;;;15.97;63.22;101041.88;1825759;78;20886;-81
2021/09/13 02:12:47;;;;;;;27.02;11.30;;;;;;;15.94;63.36;101045.58;1825798;78;21618;-89
2021/09/13 02:15:14;;;;;;;20.77;11.00;;;;;;;15.91;63.47;101051.06;1794287;78;21120;-90
2021/09/13 02:17:44;;;;;;;25.52;10.80;;;;;;;15.88;63.62;101044.30;1826074;78;21027;-83
2021/09/13 02:20:14;;;;;;;27.70;11.35;;;;;;;15.90;63.68;101044.16;1825867;78;20905;-89
2021/09/13 02:22:41;;;;;;;19.75;9.95;;;;;;;15.91;63.74;101048.92;1794087;78;20965;-86
2021/09/13 02:25:10;;;;;;;25.12;9.90;;;;;;;15.95;63.73;101043.33;1826216;78;20850;-88
2021/09/13 02:27:37;;;;;;;23.15;11.15;;;;;;;16.00;63.62;101038.53;1793565;78;21575;-89
2021/09/13 02:30:08;;;;;;;24.43;10.08;;;;;;;16.05;63.55;101042.09;1794585;78;21457;-85
2021/09/13 02:32:35;;;;;;;20.95;11.22;;;;;;;16.07;63.51;101039.69;1826156;78;20941;-83
2021/09/13 02:35:05;;;;;;;20.10;10.43;;;;;;;16.08;63.53;101034.78;1826178;78;20954;-84
2021/09/13 02:37:34;;;;;;;24.70;10.53;;;;;;;16.08;63.52;101034.78;1794198;78;21468;-88
2021/09/13 02:40:04;;;;;;;22.65;10.78;;;;;;;16.09;63.54;101039.07;1825976;78;21130;-85
2021/09/13 02:42:33;;;;;;;21.95;10.70;;;;;;;16.09;63.52;101040.37;1825848;78;21037;-87
2021/09/13 02:45:01;;;;;;;23.55;10.45;;;;;;;16.09;63.51;101031.22;1825957;78;21394;-85
2021/09/13 02:47:28;;;;;;;24.32;11.20;;;;;;;16.06;63.49;101034.56;1825904;78;21536;-82
2021/09/13 02:49:55;;;;;;;20.62;11.25;;;;;;;16.00;63.57;101037.22;1793195;78;20962;-89
2021/09/13 02:52:24;;;;;;;18.90;10.03;;;;;;;15.95;63.74;101034.16;1826200;78;21788;-89
2021/09/13 02:54:53;;;;;;;18.95;10.48;;;;;;;15.94;63.84;101031.66;1826138;78;21473;-88
2021/09/13 02:57:20;;;;;;;16.80;10.38;;;;;;;15.92;63.88;101027.88;1794217;77;20973;-86
2021/09/13 02:59:51;;;;;;;17.67;10.53;;;;;;;15.93;63.99;101035.22;1826160;78;21004;-88
2021/09/13 03:02:18;;;;;;;21.20;10.70;;;;;;;15.94;63.98;101031.66;1830578;78;20956;-80
2021/09/13 03:04:45;;;;;;;20.95;10.93;;;;;;;15.94;63.97;101027.73;1832130;78;21071;-87
2021/09/13 03:07:15;;;;;;;19.23;11.25;;;;;;;15.92;63.91;101032.27;1831863;78;20905;-85
2021/09/13 03:09:41;;;;;;;16.17;10.48;;;;;;;15.88;63.82;101034.31;1832115;78;20966;-84
2021/09/13 03:12:09;;;;;;;22.55;10.60;;;;;;;15.86;63.83;101034.42;1802379;78;20886;-87
2021/09/13 03:14:39;;;;;;;20.15;9.70;;;;;;;15.84;63.75;101037.66;1832070;78;20978;-85
2021/09/13 03:17:06;;;;;;;16.52;10.13;;;;;;;15.83;63.78;101036.45;1832055;78;21081;-86
2021/09/13 03:19:34;;;;;;;19.95;10.28;;;;;;;15.82;63.80;101034.34;1832106;78;21000;-87
2021/09/13 03:22:02;;;;;;;16.32;10.03;;;;;;;15.82;63.85;101030.89;1831841;78;21496;-84
2021/09/13 03:24:31;;;;;;;17.62;11.50;;;;;;;15.82;63.82;101037.43;1831820;78;21009;-84
2021/09/13 03:26:58;;;;;;;18.73;11.12;;;;;;;15.81;63.87;101034.45;1831919;78;21539;-89
2021/09/13 03:29:27;;;;;;;16.20;10.38;;;;;;;15.80;63.88;101033.62;1832052;78;21499;-81
2021/09/13 03:31:55;;;;;;;18.52;10.63;;;;;;;15.81;63.96;101030.52;1832258;78;21576;-81
2021/09/13 03:34:23;;;;;;;19.98;11.48;;;;;;;15.82;63.98;101033.50;1831808;78;21021;-79
2021/09/13 03:36:50;;;;;;;15.25;9.80;;;;;;;15.83;63.92;101033.36;1831907;78;21586;-79
2021/09/13 03:39:17;;;;;;;19.23;11.18;;;;;;;15.86;63.83;101033.11;1801874;78;21076;-79
2021/09/13 03:41:46;;;;;;;26.65;11.88;;;;;;;15.87;63.82;101040.02;1831995;78;21092;-85
2021/09/13 03:44:15;;;;;;;21.12;11.63;;;;;;;15.88;63.80;101042.99;1831818;78;21426;-89
2021/09/13 03:46:43;;;;;;;21.68;11.83;;;;;;;15.89;63.78;101040.70;1831906;78;20910;-90
2021/09/13 03:49:19;;;;;;;30.02;11.03;;;;;;;15.88;63.75;101040.85;1830117;78;20945;-89
2021/09/13 03:51:47;;;;;;;32.20;12.82;;;;;;;15.88;63.72;101038.23;1832148;78;21004;-87
2021/09/13 03:54:13;;;;;;;23.15;11.28;;;;;;;15.86;63.75;101044.05;1831869;78;21452;-86
2021/09/13 03:56:42;;;;;;;31.35;11.65;;;;;;;15.84;63.76;101039.44;1802258;78;20977;-85
2021/09/13 03:59:09;;;;;;;20.85;12.23;;;;;;;15.83;63.76;101043.83;1832052;78;21413;-88
2021/09/13 04:01:36;;;;;;;26.65;11.95;;;;;;;15.84;63.78;101041.58;1800232;78;20945;-87
2021/09/13 04:04:05;;;;;;;21.37;11.43;;;;;;;15.85;63.75;101041.10;1826004;78;20902;-84
2021/09/13 04:12:02;;;;;;;24.67;11.73;;;;;;;15.87;63.66;101048.34;1824104;78;20957;-86
2021/09/13 04:14:48;;;;;;;28.15;13.10;;;;;;;15.88;63.71;101051.32;1826432;78;20964;-86
2021/09/13 04:17:34;;;;;;;25.65;12.78;;;;;;;15.92;63.66;101050.59;1826932;77;20961;-85
2021/09/13 04:20:21;;;;;;;24.72;11.90;;;;;;;15.95;63.56;101056.41;1827130;78;20858;-87
2021/09/13 04:22:50;;;;;;;27.10;13.35;;;;;;;15.99;63.46;101057.80;1816015;78;20918;-84
2021/09/13 04:25:22;;;;;;;34.03;12.20;;;;;;;16.02;63.38;101052.31;1824525;78;21023;-85
2021/09/13 04:27:56;;;;;;;28.70;12.68;;;;;;;16.07;63.31;101053.25;1823959;78;20946;-85
2021/09/13 04:30:28;;;;;;;23.80;11.93;;;;;;;16.09;63.22;101055.25;1819208;78;20918;-89
2021/09/13 04:33:13;;;;;;;30.08;12.43;;;;;;;16.12;63.21;101052.38;1827180;78;21203;-85
2021/09/13 04:35:45;;;;;;;26.05;12.40;;;;;;;16.14;63.17;101052.62;1822015;78;21009;-87
2021/09/13 04:38:13;;;;;;;24.02;11.38;;;;;;;16.15;63.18;101055.58;1775352;78;20863;-87
2021/09/13 04:40:42;;;;;;;23.57;11.43;;;;;;;16.17;63.15;101056.77;1775496;78;20851;-85
2021/09/13 04:43:09;;;;;;;30.95;12.63;;;;;;;16.20;63.11;101056.52;1826684;78;20819;-86
2021/09/13 04:45:51;;;;;;;31.65;12.25;;;;;;;16.23;63.05;101066.27;1821914;78;21957;-85
2021/09/13 04:48:28;;;;;;;25.45;11.88;;;;;;;16.27;62.96;101064.22;1822196;78;20941;-84
2021/09/13 04:50:59;;;;;;;24.98;11.48;;;;;;;16.30;62.90;101067.42;1825196;78;20945;-84
2021/09/13 04:53:45;;;;;;;20.75;11.48;;;;;;;16.34;62.93;101069.27;1828093;78;21461;-84
2021/09/13 04:56:14;;;;;;;24.10;12.33;;;;;;;16.38;63.04;101071.52;1826608;78;20978;-86
2021/09/13 04:58:43;;;;;;;24.75;13.83;;;;;;;16.39;63.10;101070.58;1826289;78;20807;-85
2021/09/13 05:01:10;;;;;;;23.20;13.32;;;;;;;16.40;63.38;101076.62;1826130;78;21424;-86
2021/09/13 05:03:38;;;;;;;27.40;14.70;;;;;;;16.38;63.50;101076.77;1825992;78;21528;-84
2021/09/13 05:06:05;;;;;;;28.30;14.83;;;;;;;16.36;63.73;101078.69;1826115;78;21004;-84
2021/09/13 05:08:33;;;;;;;30.80;15.83;;;;;;;16.35;63.82;101078.80;1826199;78;20977;-84
2021/09/13 05:11:01;;;;;;;26.85;14.43;;;;;;;16.36;64.37;101082.62;1825879;77;21114;-87
2021/09/13 05:13:30;;;;;;;30.62;13.10;;;;;;;16.38;64.53;101083.78;1793932;78;20918;-87
2021/09/13 05:15:58;;;;;;;32.45;12.73;;;;;;;16.42;64.53;101083.89;1826957;78;21527;-89
2021/09/13 05:18:30;;;;;;;27.77;12.18;;;;;;;16.47;64.44;101079.55;1826936;78;20977;-87
2021/09/13 05:21:02;;;;;;;23.60;12.33;;;;;;;16.51;64.44;101079.18;1826388;78;22067;-92
2021/09/13 05:23:30;;;;;;;29.37;12.58;;;;;;;16.58;64.42;101079.53;1827060;77;21142;-85
2021/09/13 05:25:58;;;;;;;23.75;11.43;;;;;;;16.64;64.46;101082.46;1794955;77;21004;-86
2021/09/13 05:28:29;;;;;;;31.70;12.82;;;;;;;16.70;64.49;101078.02;1827098;77;20878;-86
2021/09/13 05:31:02;;;;;;;23.52;11.88;;;;;;;16.77;64.41;101071.30;1826790;77;21016;-84
2021/09/13 05:33:31;;;;;;;33.60;12.53;;;;;;;16.85;64.46;101078.01;1826596;78;20866;-84
2021/09/13 05:36:00;;;;;;;23.90;11.97;;;;;;;16.93;64.42;101074.27;1794414;78;21928;-85
2021/09/13 05:38:33;;;;;;;31.23;12.78;;;;;;;17.04;64.29;101079.06;1825993;78;20982;-86
2021/09/13 05:41:01;;;;;;;24.52;12.35;;;;;;;17.15;64.03;101078.95;1807826;77;21105;-88
2021/09/13 05:43:29;;;;;;;23.60;11.88;;;;;;;17.25;63.74;101074.09;1825586;78;20918;-85
2021/09/13 05:45:58;;;;;;;25.35;11.70;;;;;;;17.35;63.59;101076.75;1793674;78;20905;-87
2021/09/13 05:48:26;;;;;;;27.13;13.03;;;;;;;17.45;63.17;101073.66;1825024;78;21089;-84
2021/09/13 05:50:56;;;;;;;27.85;12.28;;;;;;;17.55;63.15;101078.45;1826204;78;21008;-82
2021/09/13 05:53:23;;;;;;;29.12;11.95;;;;;;;17.68;62.99;101079.50;1826484;77;21504;-84
2021/09/13 05:55:51;;;;;;;27.15;13.00;;;;;;;17.80;62.70;101078.44;1833525;76;21108;-85
2021/09/13 05:58:19;;;;;;;24.23;12.60;;;;;;;17.96;61.85;101086.59;1838258;77;20923;-83
2021/09/13 06:00:48;;;;;;;26.12;12.65;;;;;;;18.12;61.29;101080.78;1840362;77;21980;-84
2021/09/13 06:03:15;;;;;;;26.57;12.43;;;;;;;18.26;61.12;101086.91;1807848;78;21000;-83
2021/09/13 06:05:53;;;;;;;28.20;12.55;;;;;;;18.39;60.51;101083.02;1837022;78;20956;-85
2021/09/13 06:08:20;;;;;;;26.68;13.30;;;;;;;18.55;59.87;101083.78;1861055;75;20866;-84
2021/09/13 06:10:47;;;;;;;30.08;13.55;;;;;;;18.71;59.73;101090.59;1795295;78;21057;-84
2021/09/13 06:13:16;;;;;;;41.92;13.03;;;;;;;18.84;59.45;101080.58;1820670;78;20984;-81
2021/09/13 06:15:44;;;;;;;28.42;12.90;;;;;;;18.98;59.17;101084.55;1817279;78;20933;-85
2021/09/13 06:18:11;;;;;;;29.07;13.72;;;;;;;19.10;58.98;101081.23;1863119;76;20868;-84
2021/09/13 06:20:39;;;;;;;23.47;13.05;;;;;;;19.25;58.17;101076.65;1887508;76;20879;-81
2021/09/13 06:23:06;;;;;;;22.35;14.68;;;;;;;19.38;57.98;101086.83;1841049;75;21080;-82
2021/09/13 06:25:35;;;;;;;22.37;13.28;;;;;;;19.53;57.26;101088.84;1813541;78;21319;-82
2021/09/13 06:28:05;;;;;;;24.67;12.55;;;;;;;19.67;56.75;101088.83;1833053;78;20987;-81
2021/09/13 06:30:34;;;;;;;16.10;11.03;;;;;;;19.83;56.61;101085.52;1832407;77;21378;-80
2021/09/13 06:33:05;;;;;;;13.60;10.43;;;;;;;19.96;55.96;101089.92;1827588;77;20854;-83
2021/09/13 06:35:37;;;;;;;18.42;10.30;;;;;;;20.10;54.92;101085.94;1826271;77;21555;-87
2021/09/13 06:38:11;;;;;;;20.57;11.10;;;;;;;20.26;53.99;101091.34;1825102;78;21334;-83
2021/09/13 06:40:40;;;;;;;36.45;12.40;;;;;;;20.43;53.74;101092.63;1847276;77;21103;-81
2021/09/13 06:43:13;;;;;;;34.10;12.20;;;;;;;20.58;53.61;101090.28;1791182;78;20929;-83
2021/09/13 06:45:56;;;;;;;31.85;12.93;;;;;;;20.72;53.43;101091.01;1819116;77;20900;-90
2021/09/13 06:48:14;;;;;;;36.38;12.60;;;;;;;20.87;53.16;101095.20;1851979;76;21001;-82
2021/09/13 06:50:43;;;;;;;25.97;11.50;;;;;;;21.01;52.21;101094.13;1881392;74;21090;-90
2021/09/13 06:53:12;;;;;;;28.52;11.97;;;;;;;21.16;51.50;101088.27;1857890;76;20942;-88
2021/09/13 06:55:42;;;;;;;24.55;10.98;;;;;;;21.29;50.82;101092.61;1849840;76;20915;-84
2021/09/13 06:58:09;;;;;;;22.22;10.68;;;;;;;21.46;49.85;101093.01;1858689;76;20956;-81
2021/09/13 07:00:58;;;;;;;18.67;9.80;;;;;;;21.59;49.71;101092.06;1844648;76;21065;-83
2021/09/13 07:03:28;;;;;;;20.48;12.37;;;;;;;21.72;49.33;101097.70;1810284;77;21299;-84
2021/09/13 07:05:55;;;;;;;16.50;10.63;;;;;;;21.86;48.97;101094.40;1839203;76;21045;-85
2021/09/13 07:08:22;;;;;;;22.27;10.58;;;;;;;21.99;48.16;101101.38;1849878;77;21553;-80
2021/09/13 07:10:49;;;;;;;13.62;10.25;;;;;;;22.14;47.75;101094.97;1858622;76;21784;-84
2021/09/13 07:13:17;;;;;;;12.60;10.23;;;;;;;22.25;47.64;101100.39;1866877;74;21026;-82
2021/09/13 07:15:53;;;;;;;18.20;10.90;;;;;;;22.38;47.11;101096.27;1864135;76;21794;-87
2021/09/13 07:18:22;;;;;;;20.10;10.75;;;;;;;22.52;46.46;101097.41;1858076;74;21018;-86
2021/09/13 07:20:49;;;;;;;18.92;10.23;;;;;;;;;;1852182;77;21061;-87
2021/09/13 07:23:20;;;;;;;20.62;11.75;;;;;;;22.80;45.67;101096.55;1859723;76;21025;-86
2021/09/13 07:25:47;;;;;;;29.77;12.73;;;;;;;22.93;45.42;101095.02;1852509;77;21088;-86
2021/09/13 07:28:15;;;;;;;18.95;10.28;;;;;;;23.08;44.39;101093.30;1852332;77;21977;-84
2021/09/13 07:30:43;;;;;;;19.73;10.10;;;;;;;23.21;44.88;101092.75;1852628;77;21063;-84
2021/09/13 07:33:11;;;;;;;18.95;10.13;;;;;;;23.29;44.37;101087.93;1852297;76;21001;-80
2021/09/13 07:35:41;;;;;;;22.02;10.38;;;;;;;23.39;43.42;101085.90;1852346;76;21042;-85
2021/09/13 07:38:08;;;;;;;16.62;10.40;;;;;;;23.50;42.94;101089.49;1852546;76;21053;-83
2021/09/13 07:40:35;;;;;;;17.90;11.40;;;;;;;23.59;42.92;101091.92;1852564;76;21284;-81
2021/09/13 07:43:09;;;;;;;29.52;17.25;;;;;;;23.67;43.44;101080.45;1879618;76;21014;-85
2021/09/13 07:45:37;;;;;;;20.55;12.68;;;;;;;23.76;43.64;101083.38;1880610;74;21036;-85
2021/09/13 07:48:07;;;;;;;14.75;9.78;;;;;;;23.85;43.08;101082.30;1876450;76;21016;-86
2021/09/13 07:50:38;;;;;;;18.02;10.75;;;;;;;23.92;41.60;101077.95;1839342;76;21119;-86
2021/09/13 07:53:05;;;;;;;20.80;10.58;;;;;;;24.01;41.79;101078.20;1865545;74;21109;-80
2021/09/13 07:55:33;;;;;;;12.50;9.75;;;;;;;24.11;42.12;101084.13;1877069;76;21000;-82
2021/09/13 07:58:01;;;;;;;20.30;10.03;;;;;;;24.21;41.76;101083.88;1887278;74;20967;-82
2021/09/13 08:00:31;;;;;;;13.03;10.32;;;;;;;24.30;41.34;101076.16;1887326;74;21615;-87
2021/09/13 08:03:12;;;;;;;15.40;10.85;;;;;;;24.39;40.85;101079.55;1887462;76;21077;-84
2021/09/13 08:05:40;;;;;;;13.05;9.63;;;;;;;24.44;40.80;101083.83;1887327;76;21139;-82
2021/09/13 08:08:07;;;;;;;22.73;10.28;;;;;;;24.52;41.18;101081.91;1886644;76;21073;-84
2021/09/13 08:10:39;;;;;;;14.60;9.93;;;;;;;24.60;40.85;101085.80;1839850;77;21811;-87
2021/09/13 08:13:08;;;;;;;24.20;10.45;;;;;;;24.72;40.43;101084.36;1824857;78;21048;-85
2021/09/13 08:15:37;;;;;;;17.52;11.33;;;;;;;24.82;40.23;101083.30;1795426;78;21016;-84
2021/09/13 08:18:06;;;;;;;16.10;9.93;;;;;;;24.93;40.25;101078.84;1821174;78;21013;-82
2021/09/13 08:20:36;;;;;;;15.98;10.03;;;;;;;25.06;39.88;101080.33;1887112;76;20899;-86
2021/09/13 08:23:04;;;;;;;14.05;9.45;;;;;;;25.18;39.81;101074.86;1860578;75;21071;-83
2021/09/13 08:25:35;;;;;;;24.27;14.38;;;;;;;25.27;39.27;101075.90;1878328;74;21496;-89
2021/09/13 08:28:12;;;;;;;16.85;9.85;;;;;;;25.40;39.45;101079.21;1866838;74;21021;-87
2021/09/13 08:30:41;;;;;;;12.53;9.90;;;;;;;25.49;38.28;101075.48;1884973;76;21255;-85
2021/09/13 08:33:08;;;;;;;24.15;10.10;;;;;;;25.53;37.79;101070.09;1879392;74;20986;-87
2021/09/13 08:35:35;;;;;;;23.73;7.30;;;;;;;25.55;37.69;101072.08;1861660;74;20906;-83
2021/09/13 08:38:03;;;;;;;17.57;8.95;;;;;;;25.63;38.42;101081.74;1854945;76;21290;-86
2021/09/13 08:40:33;;;;;;;12.28;9.23;;;;;;;25.69;38.82;101069.02;1854703;76;21604;-85
2021/09/13 08:43:05;;;;;;;16.85;11.08;;;;;;;25.74;38.15;101075.44;1873482;75;21259;-86
2021/09/13 08:45:44;;;;;;;26.77;10.95;;;;;;;25.80;38.20;101065.88;1855366;77;21080;-86
2021/09/13 08:48:14;;;;;;;15.23;9.70;;;;;;;25.88;38.08;101069.72;1880730;75;20997;-81
2021/09/13 08:53:22;;;;;;;16.25;8.33;;;;;;;26.05;37.40;101068.95;1864494;75;21010;-89
2021/09/13 08:55:55;;;;;;;17.07;8.85;;;;;;;26.12;37.91;101071.99;1865035;76;21973;-84
2021/09/13 08:58:26;;;;;;;19.98;9.35;;;;;;;26.18;38.10;101073.09;1886089;76;21631;-87
2021/09/13 09:00:46;;;;;;;21.35;9.95;;;;;;;26.26;37.89;101065.77;1877717;76;22083;-89
2021/09/13 09:03:13;;;;;;;15.48;9.60;;;;;;;26.34;37.92;101061.33;1867689;76;21567;-83
2021/09/13 09:05:53;;;;;;;17.55;10.03;;;;;;;26.41;37.40;101065.69;1856673;75;21029;-83
2021/09/13 09:08:28;;;;;;;17.52;9.85;;;;;;;26.48;37.03;101058.58;1866887;76;21718;-83
2021/09/13 09:11:19;;;;;;;16.15;8.73;;;;;;;26.56;37.01;101060.25;1888224;76;21022;-86
2021/09/13 09:13:56;;;;;;;14.78;9.13;;;;;;;26.63;36.79;101061.94;1830129;76;20911;-88
2021/09/13 09:16:27;;;;;;;19.10;9.68;;;;;;;26.72;36.19;101055.94;1858426;75;21493;-84
2021/09/13 09:19:08;;;;;;;10.85;9.55;;;;;;;26.80;36.33;101057.13;1867326;76;21016;-88
2021/09/13 09:21:34;;;;;;;14.75;10.50;;;;;;;26.89;36.29;101051.98;1863079;76;21398;-85
2021/09/13 09:24:04;;;;;;;13.03;8.73;;;;;;;27.03;35.90;101054.16;1854636;76;20907;-86
2021/09/13 09:26:32;;;;;;;19.48;9.40;;;;;;;27.12;35.94;101058.33;1854428;76;20978;-84
2021/09/13 09:29:04;;;;;;;17.77;10.55;;;;;;;27.23;35.49;101054.56;1854748;76;21041;-86
2021/09/13 09:31:41;;;;;;;12.93;8.80;;;;;;;27.37;35.24;101049.27;1875409;76;21069;-83
2021/09/13 09:34:19;;;;;;;19.80;9.35;;;;;;;27.45;35.11;101049.94;1853495;76;21291;-81
2021/09/13 09:37:04;;;;;;;12.40;10.18;;;;;;;27.58;34.99;101049.97;1884167;76;20950;-84
2021/09/13 09:39:44;;;;;;;11.33;9.08;;;;;;;27.64;34.39;101046.98;1886464;76;21113;-84
2021/09/13 09:42:46;;;;;;;13.45;9.25;;;;;;;27.91;34.49;101043.84;1889077;74;20993;-88
2021/09/13 09:45:25;;;;;;;14.10;8.93;;;;;;;28.90;32.96;101046.72;1811824;79;21108;-83
2021/09/13 09:48:09;;;;;;;13.40;8.45;;;;;;;30.44;31.98;101043.97;1790264;79;21243;-83
2021/09/13 09:50:38;;;;;;;14.53;9.30;;;;;;;31.78;29.00;101040.47;1814453;79;20973;-83
2021/09/13 09:53:19;;;;;;;10.55;8.75;;;;;;;32.44;26.50;101038.02;1784015;79;21460;-84
2021/09/13 09:55:53;;;;;;;15.23;8.30;;;;;;;33.13;26.58;101043.79;1777389;80;21070;-85
2021/09/13 09:58:24;;;;;;;18.50;8.35;;;;;;;34.28;25.45;101032.03;1779149;80;21160;-85
2021/09/13 10:00:57;;;;;;;11.95;8.10;;;;;;;35.29;23.49;101035.20;1781972;80;21082;-88
2021/09/13 10:03:35;;;;;;;12.45;8.30;;;;;;;35.78;22.26;101034.03;1747108;81;21097;-83
2021/09/13 10:06:05;;;;;;;11.75;8.13;;;;;;;36.34;22.17;101027.14;1729885;82;21032;-84
2021/09/13 10:08:34;;;;;;;11.73;7.80;;;;;;;37.66;20.97;101027.00;1696992;84;21065;-88
2021/09/13 10:11:07;;;;;;;13.48;8.20;;;;;;;38.79;18.98;101023.23;1726785;81;21038;-88
2021/09/13 10:13:36;;;;;;;14.38;8.28;;;;;;;38.54;18.34;101021.99;1725964;83;20957;-86
2021/09/13 10:16:04;;;;;;;13.03;8.23;;;;;;;38.25;18.53;101020.98;1728347;81;21249;-88
2021/09/13 10:18:31;;;;;;;12.78;9.00;;;;;;;38.43;18.85;101018.50;1745097;77;21032;-87
2021/09/13 10:21:03;;;;;;;10.28;8.60;;;;;;;39.09;18.41;101012.78;1853072;77;20971;-84
2021/09/13 10:23:30;;;;;;;8.80;7.80;;;;;;;39.14;17.51;101023.05;1853290;77;20963;-86
2021/09/13 10:25:59;;;;;;;10.70;8.25;;;;;;;38.92;17.49;101015.05;1838448;77;21172;-85
2021/09/13 10:28:31;;;;;;;10.35;7.90;;;;;;;38.42;17.49;101007.95;1819465;77;20989;-85
2021/09/13 10:31:00;;;;;;;15.38;8.13;;;;;;;38.06;18.41;101005.31;1820096;78;21458;-81
2021/09/13 10:33:30;;;;;;;12.82;8.03;;;;;;;37.96;18.40;101008.04;1822576;77;21029;-84
2021/09/13 10:36:02;;;;;;;10.88;7.87;;;;;;;37.34;18.93;101012.34;1820989;77;21037;-83
2021/09/13 10:38:50;;;;;;;16.35;8.00;;;;;;;36.35;19.63;101014.42;1848943;77;21102;-81
2021/09/13 10:41:58;;;;;;;15.40;8.40;;;;;;;35.66;20.46;101012.33;1797023;79;21049;-82
2021/09/13 10:44:36;;;;;;;10.45;7.45;;;;;;;35.61;20.69;101007.72;1852259;77;20965;-83
2021/09/13 10:47:07;;;;;;;15.28;8.35;;;;;;;35.44;21.92;101000.24;1825783;77;21620;-82
2021/09/13 10:49:35;;;;;;;18.70;9.55;;;;;;;35.25;21.10;101000.34;1826282;77;21061;-81
2021/09/13 10:52:31;;;;;;;14.90;8.58;;;;;;;34.76;21.93;100999.52;1823083;77;21046;-82
2021/09/13 10:55:19;;;;;;;15.68;8.73;;;;;;;34.80;21.90;100992.03;1800793;76;21036;-84
2021/09/13 10:58:06;;;;;;;11.57;8.75;;;;;;;34.47;22.44;100988.91;1853215;77;21043;-85
2021/09/13 11:00:45;;;;;;;12.55;8.83;;;;;;;34.01;23.17;100992.03;1853218;76;21130;-86
2021/09/13 11:03:33;;;;;;;21.02;9.88;;;;;;;33.51;23.68;100995.52;1853413;77;20989;-87
2021/09/13 11:06:19;;;;;;;12.78;8.78;;;;;;;33.05;23.68;101001.66;1852347;77;21711;-82
2021/09/13 11:08:50;;;;;;;12.80;9.15;;;;;;;32.49;24.27;100997.29;1852682;77;21552;-82
2021/09/13 11:11:30;;;;;;;12.75;8.58;;;;;;;31.96;24.88;100995.27;1847804;77;21053;-86
2021/09/13 11:14:05;;;;;;;14.47;8.60;;;;;;;31.54;25.18;100991.02;1854017;77;20958;-83
2021/09/13 11:16:41;;;;;;;20.20;8.75;;;;;;;31.24;25.98;100996.42;1852894;77;21054;-82
2021/09/13 11:19:11;;;;;;;14.00;8.60;;;;;;;31.15;26.06;100994.56;1854261;76;21772;-83
2021/09/13 11:21:52;;;;;;;12.50;8.68;;;;;;;30.97;26.23;100991.94;1850295;77;21544;-84
2021/09/13 11:24:26;;;;;;;;;;;;;;;30.73;26.51;100994.98;1851359;77;21069;-85
2021/09/13 11:27:03;;;;;;;14.38;8.13;;;;;;;30.50;26.68;100992.70;1852894;77;20150;-86
2021/09/13 11:29:35;;;;;;;15.68;9.33;;;;;;;30.25;26.99;100991.41;1812695;78;21049;-82
2021/09/13 11:32:16;;;;;;;14.85;9.75;;;;;;;30.07;27.00;100989.51;1820898;78;21056;-89
2021/09/13 11:34:50;;;;;;;16.57;10.18;;;;;;;29.91;26.98;100985.54;1819876;78;20945;-81
2021/09/13 11:37:30;;;;;;;13.62;8.95;;;;;;;29.69;27.23;100980.25;1819182;77;21033;-80